sensor_id;sensor_type;location;lat;lon;timestamp;temperature;humidity
28520;DHT22;15732;48.534;20.382;2023-07-02T00:00:12;20.50;99.90
28520;DHT22;15732;48.534;20.382;2023-07-02T00:02:40;20.50;99.90
28520;DHT22;15732;48.534;20.382;2023-07-02T00:05:08;20.50;99.90
28520;DHT22;15732;48.534;20.382;2023-07-02T00:07:35;20.50;99.90
28520;DHT22;15732;48.534;20.382;2023-07-02T00:10:03;20.60;99.90
28520;DHT22;15732;48.534;20.382;2023-07-02T00:12:30;20.60;99.90
28520;DHT22;15732;48.534;20.382;2023-07-02T00:14:57;20.50;99.90
28520;DHT22;15732;48.534;20.382;2023-07-02T00:17:24;20.60;99.90
28520;DHT22;15732;48.534;20.382;2023-07-02T00:19:52;20.60;99.90
28520;DHT22;15732;48.534;20.382;2023-07-02T00:22:23;20.60;99.90
28520;DHT22;15732;48.534;20.382;2023-07-02T00:24:54;20.60;99.90
28520;DHT22;15732;48.534;20.382;2023-07-02T00:27:22;20.50;99.90
28520;DHT22;15732;48.534;20.382;2023-07-02T00:29:53;20.50;99.90
28520;DHT22;15732;48.534;20.382;2023-07-02T00:32:20;20.40;99.90
28520;DHT22;15732;48.534;20.382;2023-07-02T00:34:48;20.30;99.90
28520;DHT22;15732;48.534;20.382;2023-07-02T00:37:15;20.10;99.90
28520;DHT22;15732;48.534;20.382;2023-07-02T00:39:42;20.10;99.90
28520;DHT22;15732;48.534;20.382;2023-07-02T00:42:14;20.10;99.90
28520;DHT22;15732;48.534;20.382;2023-07-02T00:44:41;20.10;99.90
28520;DHT22;15732;48.534;20.382;2023-07-02T00:47:12;20.10;99.90
28520;DHT22;15732;48.534;20.382;2023-07-02T00:49:40;20.10;99.90
28520;DHT22;15732;48.534;20.382;2023-07-02T00:52:11;19.90;99.90
28520;DHT22;15732;48.534;20.382;2023-07-02T00:54:42;19.70;99.90
28520;DHT22;15732;48.534;20.382;2023-07-02T00:57:09;19.60;99.90
28520;DHT22;15732;48.534;20.382;2023-07-02T00:59:37;19.60;99.90
28520;DHT22;15732;48.534;20.382;2023-07-02T01:02:05;19.70;99.90
28520;DHT22;15732;48.534;20.382;2023-07-02T01:04:36;19.70;99.90
28520;DHT22;15732;48.534;20.382;2023-07-02T01:07:04;19.70;99.90
28520;DHT22;15732;48.534;20.382;2023-07-02T01:09:35;19.70;99.90
28520;DHT22;15732;48.534;20.382;2023-07-02T01:12:06;19.70;99.90
28520;DHT22;15732;48.534;20.382;2023-07-02T01:14:41;19.80;99.90
28520;DHT22;15732;48.534;20.382;2023-07-02T01:17:14;19.80;99.90
28520;DHT22;15732;48.534;20.382;2023-07-02T01:19:48;19.90;99.90
28520;DHT22;15732;48.534;20.382;2023-07-02T01:22:23;19.80;99.90
28520;DHT22;15732;48.534;20.382;2023-07-02T01:24:51;19.60;99.90
28520;DHT22;15732;48.534;20.382;2023-07-02T01:27:19;19.60;99.90
28520;DHT22;15732;48.534;20.382;2023-07-02T01:29:51;19.60;99.90
28520;DHT22;15732;48.534;20.382;2023-07-02T01:32:22;19.60;99.90
28520;DHT22;15732;48.534;20.382;2023-07-02T01:34:49;19.50;99.90
28520;DHT22;15732;48.534;20.382;2023-07-02T01:37:22;19.50;99.90
28520;DHT22;15732;48.534;20.382;2023-07-02T01:39:50;19.50;99.90
28520;DHT22;15732;48.534;20.382;2023-07-02T01:42:18;19.50;99.90
28520;DHT22;15732;48.534;20.382;2023-07-02T01:44:47;19.50;99.90
28520;DHT22;15732;48.534;20.382;2023-07-02T01:47:21;19.50;99.90
28520;DHT22;15732;48.534;20.382;2023-07-02T01:49:49;19.50;99.90
28520;DHT22;15732;48.534;20.382;2023-07-02T01:52:17;19.50;99.90
28520;DHT22;15732;48.534;20.382;2023-07-02T01:54:44;19.60;99.90
28520;DHT22;15732;48.534;20.382;2023-07-02T01:57:12;19.60;99.90
28520;DHT22;15732;48.534;20.382;2023-07-02T01:59:39;19.70;99.90
28520;DHT22;15732;48.534;20.382;2023-07-02T02:02:07;19.70;99.90
28520;DHT22;15732;48.534;20.382;2023-07-02T02:04:38;19.80;99.90
28520;DHT22;15732;48.534;20.382;2023-07-02T02:07:05;19.80;99.90
28520;DHT22;15732;48.534;20.382;2023-07-02T02:09:32;19.70;99.90
28520;DHT22;15732;48.534;20.382;2023-07-02T02:12:00;19.50;99.90
28520;DHT22;15732;48.534;20.382;2023-07-02T02:14:27;19.40;99.90
28520;DHT22;15732;48.534;20.382;2023-07-02T02:16:55;19.30;99.90
28520;DHT22;15732;48.534;20.382;2023-07-02T02:19:22;19.40;99.90
28520;DHT22;15732;48.534;20.382;2023-07-02T02:21:49;19.40;99.90
28520;DHT22;15732;48.534;20.382;2023-07-02T02:24:17;19.50;99.90
28520;DHT22;15732;48.534;20.382;2023-07-02T02:26:44;19.60;99.90
28520;DHT22;15732;48.534;20.382;2023-07-02T02:29:11;19.50;99.90
28520;DHT22;15732;48.534;20.382;2023-07-02T02:31:39;19.50;99.90
28520;DHT22;15732;48.534;20.382;2023-07-02T02:34:06;19.50;99.90
28520;DHT22;15732;48.534;20.382;2023-07-02T02:36:37;19.50;99.90
28520;DHT22;15732;48.534;20.382;2023-07-02T02:39:04;19.50;99.90
28520;DHT22;15732;48.534;20.382;2023-07-02T02:41:32;19.50;99.90
28520;DHT22;15732;48.534;20.382;2023-07-02T02:43:59;19.40;99.90
28520;DHT22;15732;48.534;20.382;2023-07-02T02:46:31;19.30;99.90
28520;DHT22;15732;48.534;20.382;2023-07-02T02:48:58;19.30;99.90
28520;DHT22;15732;48.534;20.382;2023-07-02T02:51:25;19.30;99.90
28520;DHT22;15732;48.534;20.382;2023-07-02T02:53:53;19.40;99.90
28520;DHT22;15732;48.534;20.382;2023-07-02T02:56:20;19.40;99.90
28520;DHT22;15732;48.534;20.382;2023-07-02T02:58:48;19.50;99.90
28520;DHT22;15732;48.534;20.382;2023-07-02T03:01:15;19.50;99.90
28520;DHT22;15732;48.534;20.382;2023-07-02T03:03:43;19.60;99.90
28520;DHT22;15732;48.534;20.382;2023-07-02T03:06:14;19.60;99.90
28520;DHT22;15732;48.534;20.382;2023-07-02T03:08:41;19.60;99.90
28520;DHT22;15732;48.534;20.382;2023-07-02T03:11:12;19.60;99.90
28520;DHT22;15732;48.534;20.382;2023-07-02T03:13:39;19.60;99.90
28520;DHT22;15732;48.534;20.382;2023-07-02T03:16:06;19.50;99.90
28520;DHT22;15732;48.534;20.382;2023-07-02T03:18:34;19.60;99.90
28520;DHT22;15732;48.534;20.382;2023-07-02T03:21:01;19.60;99.90
28520;DHT22;15732;48.534;20.382;2023-07-02T03:23:28;19.70;99.90
28520;DHT22;15732;48.534;20.382;2023-07-02T03:25:55;19.70;99.90
28520;DHT22;15732;48.534;20.382;2023-07-02T03:28:23;19.70;99.90
28520;DHT22;15732;48.534;20.382;2023-07-02T03:30:50;19.70;99.90
28520;DHT22;15732;48.534;20.382;2023-07-02T03:33:18;19.70;99.90
28520;DHT22;15732;48.534;20.382;2023-07-02T03:35:49;19.70;99.90
28520;DHT22;15732;48.534;20.382;2023-07-02T03:38:16;19.70;99.90
28520;DHT22;15732;48.534;20.382;2023-07-02T03:40:48;19.70;99.90
28520;DHT22;15732;48.534;20.382;2023-07-02T03:43:19;19.80;99.90
28520;DHT22;15732;48.534;20.382;2023-07-02T03:45:47;19.80;99.90
28520;DHT22;15732;48.534;20.382;2023-07-02T03:48:18;19.90;99.90
28520;DHT22;15732;48.534;20.382;2023-07-02T03:50:45;19.90;99.90
28520;DHT22;15732;48.534;20.382;2023-07-02T03:53:12;20.00;99.90
28520;DHT22;15732;48.534;20.382;2023-07-02T03:55:40;20.10;99.90
28520;DHT22;15732;48.534;20.382;2023-07-02T03:58:07;20.20;99.90
28520;DHT22;15732;48.534;20.382;2023-07-02T04:00:35;20.30;99.90
28520;DHT22;15732;48.534;20.382;2023-07-02T04:03:02;20.30;99.90
28520;DHT22;15732;48.534;20.382;2023-07-02T04:05:30;20.50;99.90
28520;DHT22;15732;48.534;20.382;2023-07-02T04:08:01;20.50;99.90
28520;DHT22;15732;48.534;20.382;2023-07-02T04:10:28;20.50;99.90
28520;DHT22;15732;48.534;20.382;2023-07-02T04:12:56;20.60;99.90
28520;DHT22;15732;48.534;20.382;2023-07-02T04:15:27;20.60;99.90
28520;DHT22;15732;48.534;20.382;2023-07-02T04:17:54;20.70;99.90
28520;DHT22;15732;48.534;20.382;2023-07-02T04:20:21;20.60;99.90
28520;DHT22;15732;48.534;20.382;2023-07-02T04:22:48;20.50;99.90
28520;DHT22;15732;48.534;20.382;2023-07-02T04:25:16;20.50;99.90
28520;DHT22;15732;48.534;20.382;2023-07-02T04:27:46;20.50;99.90
28520;DHT22;15732;48.534;20.382;2023-07-02T04:30:13;20.50;99.90
28520;DHT22;15732;48.534;20.382;2023-07-02T04:32:41;20.50;99.90
28520;DHT22;15732;48.534;20.382;2023-07-02T04:35:08;20.50;99.90
28520;DHT22;15732;48.534;20.382;2023-07-02T04:37:36;20.50;99.90
28520;DHT22;15732;48.534;20.382;2023-07-02T04:40:05;20.40;99.90
28520;DHT22;15732;48.534;20.382;2023-07-02T04:42:39;20.50;99.90
28520;DHT22;15732;48.534;20.382;2023-07-02T04:45:10;20.40;99.90
28520;DHT22;15732;48.534;20.382;2023-07-02T04:47:40;20.50;99.90
28520;DHT22;15732;48.534;20.382;2023-07-02T04:50:06;20.50;99.90
28520;DHT22;15732;48.534;20.382;2023-07-02T04:52:34;20.50;99.90
28520;DHT22;15732;48.534;20.382;2023-07-02T04:55:03;20.40;99.90
28520;DHT22;15732;48.534;20.382;2023-07-02T04:57:30;20.40;99.90
28520;DHT22;15732;48.534;20.382;2023-07-02T04:59:57;20.40;99.90
28520;DHT22;15732;48.534;20.382;2023-07-02T05:02:28;20.50;99.90
28520;DHT22;15732;48.534;20.382;2023-07-02T05:04:55;20.50;99.90
28520;DHT22;15732;48.534;20.382;2023-07-02T05:07:22;20.60;99.90
28520;DHT22;15732;48.534;20.382;2023-07-02T05:09:53;20.60;99.90
28520;DHT22;15732;48.534;20.382;2023-07-02T05:12:22;20.60;99.90
28520;DHT22;15732;48.534;20.382;2023-07-02T05:14:49;20.70;99.90
28520;DHT22;15732;48.534;20.382;2023-07-02T05:17:17;20.70;99.90
28520;DHT22;15732;48.534;20.382;2023-07-02T05:19:47;20.70;99.90
28520;DHT22;15732;48.534;20.382;2023-07-02T05:22:15;20.70;99.90
28520;DHT22;15732;48.534;20.382;2023-07-02T05:24:46;20.80;99.90
28520;DHT22;15732;48.534;20.382;2023-07-02T05:27:13;20.80;99.90
28520;DHT22;15732;48.534;20.382;2023-07-02T05:29:44;20.70;99.90
28520;DHT22;15732;48.534;20.382;2023-07-02T05:32:11;20.80;99.90
28520;DHT22;15732;48.534;20.382;2023-07-02T05:34:38;20.80;99.90
28520;DHT22;15732;48.534;20.382;2023-07-02T05:37:09;20.90;99.90
28520;DHT22;15732;48.534;20.382;2023-07-02T05:39:40;20.90;99.90
28520;DHT22;15732;48.534;20.382;2023-07-02T05:42:08;21.00;99.90
28520;DHT22;15732;48.534;20.382;2023-07-02T05:44:39;21.10;99.90
28520;DHT22;15732;48.534;20.382;2023-07-02T05:47:06;21.30;99.90
28520;DHT22;15732;48.534;20.382;2023-07-02T05:49:34;21.50;99.90
28520;DHT22;15732;48.534;20.382;2023-07-02T05:52:05;21.70;99.90
28520;DHT22;15732;48.534;20.382;2023-07-02T05:54:33;21.70;99.90
28520;DHT22;15732;48.534;20.382;2023-07-02T05:57:00;21.80;99.90
28520;DHT22;15732;48.534;20.382;2023-07-02T05:59:28;21.80;99.90
28520;DHT22;15732;48.534;20.382;2023-07-02T06:01:59;21.90;99.90
28520;DHT22;15732;48.534;20.382;2023-07-02T06:04:30;22.00;99.90
28520;DHT22;15732;48.534;20.382;2023-07-02T06:06:58;22.20;99.90
28520;DHT22;15732;48.534;20.382;2023-07-02T06:09:25;22.40;99.90
28520;DHT22;15732;48.534;20.382;2023-07-02T06:11:52;22.60;99.90
28520;DHT22;15732;48.534;20.382;2023-07-02T06:14:24;22.80;99.90
28520;DHT22;15732;48.534;20.382;2023-07-02T06:16:52;23.00;99.90
28520;DHT22;15732;48.534;20.382;2023-07-02T06:19:19;23.20;99.90
28520;DHT22;15732;48.534;20.382;2023-07-02T06:21:50;23.30;99.90
28520;DHT22;15732;48.534;20.382;2023-07-02T06:24:22;23.50;99.90
28520;DHT22;15732;48.534;20.382;2023-07-02T06:26:50;23.50;99.90
28520;DHT22;15732;48.534;20.382;2023-07-02T06:29:17;23.60;99.90
28520;DHT22;15732;48.534;20.382;2023-07-02T06:31:45;23.60;99.90
28520;DHT22;15732;48.534;20.382;2023-07-02T06:34:16;23.70;99.90
28520;DHT22;15732;48.534;20.382;2023-07-02T06:36:48;23.70;99.90
28520;DHT22;15732;48.534;20.382;2023-07-02T06:39:19;23.80;99.90
28520;DHT22;15732;48.534;20.382;2023-07-02T06:41:47;23.90;99.90
28520;DHT22;15732;48.534;20.382;2023-07-02T06:44:15;24.00;99.90
28520;DHT22;15732;48.534;20.382;2023-07-02T06:46:45;24.00;99.90
28520;DHT22;15732;48.534;20.382;2023-07-02T06:49:12;24.00;99.90
28520;DHT22;15732;48.534;20.382;2023-07-02T06:51:39;24.00;99.90
28520;DHT22;15732;48.534;20.382;2023-07-02T06:54:11;24.10;99.90
28520;DHT22;15732;48.534;20.382;2023-07-02T06:56:40;24.20;99.90
28520;DHT22;15732;48.534;20.382;2023-07-02T06:59:07;24.40;99.90
28520;DHT22;15732;48.534;20.382;2023-07-02T07:01:34;24.60;99.90
28520;DHT22;15732;48.534;20.382;2023-07-02T07:04:05;24.70;99.90
28520;DHT22;15732;48.534;20.382;2023-07-02T07:06:33;24.80;99.90
28520;DHT22;15732;48.534;20.382;2023-07-02T07:09:05;24.90;99.90
28520;DHT22;15732;48.534;20.382;2023-07-02T07:11:32;25.10;99.90
28520;DHT22;15732;48.534;20.382;2023-07-02T07:14:03;25.20;99.90
28520;DHT22;15732;48.534;20.382;2023-07-02T07:16:30;25.40;99.90
28520;DHT22;15732;48.534;20.382;2023-07-02T07:18:58;25.50;99.90
28520;DHT22;15732;48.534;20.382;2023-07-02T07:21:25;25.70;99.90
28520;DHT22;15732;48.534;20.382;2023-07-02T07:23:52;25.80;99.90
28520;DHT22;15732;48.534;20.382;2023-07-02T07:26:23;25.90;99.90
28520;DHT22;15732;48.534;20.382;2023-07-02T07:28:54;25.90;99.90
28520;DHT22;15732;48.534;20.382;2023-07-02T07:31:22;25.90;99.90
28520;DHT22;15732;48.534;20.382;2023-07-02T07:33:53;25.90;99.90
28520;DHT22;15732;48.534;20.382;2023-07-02T07:36:21;25.80;99.90
28520;DHT22;15732;48.534;20.382;2023-07-02T07:38:52;25.70;99.90
28520;DHT22;15732;48.534;20.382;2023-07-02T07:41:23;25.60;99.90
28520;DHT22;15732;48.534;20.382;2023-07-02T07:43:55;25.50;99.90
28520;DHT22;15732;48.534;20.382;2023-07-02T07:46:22;25.40;99.90
28520;DHT22;15732;48.534;20.382;2023-07-02T07:48:50;25.40;99.90
28520;DHT22;15732;48.534;20.382;2023-07-02T07:51:17;25.30;99.90
28520;DHT22;15732;48.534;20.382;2023-07-02T07:53:44;25.30;99.90
28520;DHT22;15732;48.534;20.382;2023-07-02T07:56:13;25.30;99.90
28520;DHT22;15732;48.534;20.382;2023-07-02T07:58:40;25.30;99.90
28520;DHT22;15732;48.534;20.382;2023-07-02T08:01:11;25.30;99.90
28520;DHT22;15732;48.534;20.382;2023-07-02T08:03:39;25.30;99.90
28520;DHT22;15732;48.534;20.382;2023-07-02T08:06:06;25.20;99.90
28520;DHT22;15732;48.534;20.382;2023-07-02T08:08:38;25.20;99.90
28520;DHT22;15732;48.534;20.382;2023-07-02T08:11:05;25.20;99.90
28520;DHT22;15732;48.534;20.382;2023-07-02T08:13:33;25.20;99.90
28520;DHT22;15732;48.534;20.382;2023-07-02T08:16:00;25.20;99.90
28520;DHT22;15732;48.534;20.382;2023-07-02T08:18:31;25.20;99.90
28520;DHT22;15732;48.534;20.382;2023-07-02T08:21:02;25.20;99.90
28520;DHT22;15732;48.534;20.382;2023-07-02T08:23:35;25.20;99.90
28520;DHT22;15732;48.534;20.382;2023-07-02T08:26:02;25.20;99.90
28520;DHT22;15732;48.534;20.382;2023-07-02T08:28:34;25.20;99.90
28520;DHT22;15732;48.534;20.382;2023-07-02T08:31:05;25.20;99.90
28520;DHT22;15732;48.534;20.382;2023-07-02T08:33:36;25.20;99.90
28520;DHT22;15732;48.534;20.382;2023-07-02T08:36:04;25.30;99.90
28520;DHT22;15732;48.534;20.382;2023-07-02T08:38:31;25.30;99.90
28520;DHT22;15732;48.534;20.382;2023-07-02T08:40:58;25.40;99.90
28520;DHT22;15732;48.534;20.382;2023-07-02T08:43:26;25.60;99.90
28520;DHT22;15732;48.534;20.382;2023-07-02T08:45:57;25.70;99.90
28520;DHT22;15732;48.534;20.382;2023-07-02T08:48:26;25.90;99.90
28520;DHT22;15732;48.534;20.382;2023-07-02T08:50:52;26.10;99.90
28520;DHT22;15732;48.534;20.382;2023-07-02T08:53:23;26.20;99.90
28520;DHT22;15732;48.534;20.382;2023-07-02T08:56:01;26.30;99.90
28520;DHT22;15732;48.534;20.382;2023-07-02T08:58:28;26.40;99.90
28520;DHT22;15732;48.534;20.382;2023-07-02T09:01:24;26.50;99.90
28520;DHT22;15732;48.534;20.382;2023-07-02T09:03:52;26.50;99.90
28520;DHT22;15732;48.534;20.382;2023-07-02T09:06:23;26.60;99.90
28520;DHT22;15732;48.534;20.382;2023-07-02T09:09:04;26.50;99.90
28520;DHT22;15732;48.534;20.382;2023-07-02T09:11:31;26.50;99.90
28520;DHT22;15732;48.534;20.382;2023-07-02T09:13:58;26.50;99.90
28520;DHT22;15732;48.534;20.382;2023-07-02T09:16:34;26.60;99.90
28520;DHT22;15732;48.534;20.382;2023-07-02T09:19:07;26.70;99.90
28520;DHT22;15732;48.534;20.382;2023-07-02T09:21:53;26.70;99.90
28520;DHT22;15732;48.534;20.382;2023-07-02T09:24:25;26.80;99.90
28520;DHT22;15732;48.534;20.382;2023-07-02T09:26:54;26.90;99.90
28520;DHT22;15732;48.534;20.382;2023-07-02T09:31:53;26.90;99.90
28520;DHT22;15732;48.534;20.382;2023-07-02T09:34:27;27.00;99.90
28520;DHT22;15732;48.534;20.382;2023-07-02T09:36:54;27.00;99.90
28520;DHT22;15732;48.534;20.382;2023-07-02T09:39:35;27.00;99.90
28520;DHT22;15732;48.534;20.382;2023-07-02T09:42:17;27.10;99.90
28520;DHT22;15732;48.534;20.382;2023-07-02T09:44:46;27.10;99.90
28520;DHT22;15732;48.534;20.382;2023-07-02T09:47:15;27.10;99.90
28520;DHT22;15732;48.534;20.382;2023-07-02T09:49:54;27.20;99.90
28520;DHT22;15732;48.534;20.382;2023-07-02T09:52:22;27.20;99.90
28520;DHT22;15732;48.534;20.382;2023-07-02T09:54:49;27.20;99.90
28520;DHT22;15732;48.534;20.382;2023-07-02T09:57:17;27.20;99.90
28520;DHT22;15732;48.534;20.382;2023-07-02T09:59:49;27.30;99.90
28520;DHT22;15732;48.534;20.382;2023-07-02T10:02:17;27.30;99.90
28520;DHT22;15732;48.534;20.382;2023-07-02T10:04:48;27.40;99.90
28520;DHT22;15732;48.534;20.382;2023-07-02T10:07:31;27.40;99.90
28520;DHT22;15732;48.534;20.382;2023-07-02T10:09:59;27.50;99.90
28520;DHT22;15732;48.534;20.382;2023-07-02T10:12:28;27.50;99.90
28520;DHT22;15732;48.534;20.382;2023-07-02T10:14:58;27.50;99.90
28520;DHT22;15732;48.534;20.382;2023-07-02T10:19:56;27.50;99.90
28520;DHT22;15732;48.534;20.382;2023-07-02T10:22:24;27.50;99.90
28520;DHT22;15732;48.534;20.382;2023-07-02T10:24:56;27.50;99.90
28520;DHT22;15732;48.534;20.382;2023-07-02T10:27:48;27.50;99.90
28520;DHT22;15732;48.534;20.382;2023-07-02T10:30:16;27.60;99.90
28520;DHT22;15732;48.534;20.382;2023-07-02T10:32:46;27.60;99.90
28520;DHT22;15732;48.534;20.382;2023-07-02T10:35:17;27.70;99.90
28520;DHT22;15732;48.534;20.382;2023-07-02T10:37:45;27.70;99.90
28520;DHT22;15732;48.534;20.382;2023-07-02T10:40:13;27.80;99.90
28520;DHT22;15732;48.534;20.382;2023-07-02T10:42:51;27.70;99.90
28520;DHT22;15732;48.534;20.382;2023-07-02T10:45:19;27.70;99.90
28520;DHT22;15732;48.534;20.382;2023-07-02T10:47:51;27.80;99.90
28520;DHT22;15732;48.534;20.382;2023-07-02T10:50:21;27.70;99.90
28520;DHT22;15732;48.534;20.382;2023-07-02T10:52:49;27.80;99.90
28520;DHT22;15732;48.534;20.382;2023-07-02T10:55:23;27.80;99.90
28520;DHT22;15732;48.534;20.382;2023-07-02T10:58:03;27.90;99.90
28520;DHT22;15732;48.534;20.382;2023-07-02T11:00:45;27.80;99.90
28520;DHT22;15732;48.534;20.382;2023-07-02T11:05:48;27.80;99.90
28520;DHT22;15732;48.534;20.382;2023-07-02T11:08:20;27.80;99.90
28520;DHT22;15732;48.534;20.382;2023-07-02T11:11:02;27.70;99.90
28520;DHT22;15732;48.534;20.382;2023-07-02T11:13:34;27.70;99.90
28520;DHT22;15732;48.534;20.382;2023-07-02T11:16:01;27.70;99.90
28520;DHT22;15732;48.534;20.382;2023-07-02T11:18:31;27.70;99.90
28520;DHT22;15732;48.534;20.382;2023-07-02T11:20:58;27.70;99.90
28520;DHT22;15732;48.534;20.382;2023-07-02T11:23:36;27.60;99.90
28520;DHT22;15732;48.534;20.382;2023-07-02T11:26:03;27.60;99.90
28520;DHT22;15732;48.534;20.382;2023-07-02T11:28:34;27.60;99.90
28520;DHT22;15732;48.534;20.382;2023-07-02T11:31:05;27.60;99.90
28520;DHT22;15732;48.534;20.382;2023-07-02T11:33:37;27.60;99.90
28520;DHT22;15732;48.534;20.382;2023-07-02T11:36:20;27.50;99.90
28520;DHT22;15732;48.534;20.382;2023-07-02T11:38:48;27.50;99.90
28520;DHT22;15732;48.534;20.382;2023-07-02T11:41:15;27.50;99.90
28520;DHT22;15732;48.534;20.382;2023-07-02T11:43:42;27.50;99.90
28520;DHT22;15732;48.534;20.382;2023-07-02T11:46:09;27.50;99.90
28520;DHT22;15732;48.534;20.382;2023-07-02T11:48:36;27.50;99.90
28520;DHT22;15732;48.534;20.382;2023-07-02T11:51:08;27.60;99.90
28520;DHT22;15732;48.534;20.382;2023-07-02T11:53:35;27.60;99.90
28520;DHT22;15732;48.534;20.382;2023-07-02T11:56:02;27.60;99.90
28520;DHT22;15732;48.534;20.382;2023-07-02T11:58:29;27.70;99.90
28520;DHT22;15732;48.534;20.382;2023-07-02T12:00:57;27.70;99.90
28520;DHT22;15732;48.534;20.382;2023-07-02T12:03:24;27.70;99.90
28520;DHT22;15732;48.534;20.382;2023-07-02T12:05:55;27.80;99.90
28520;DHT22;15732;48.534;20.382;2023-07-02T12:08:22;27.80;99.90
28520;DHT22;15732;48.534;20.382;2023-07-02T12:10:49;27.80;99.90
28520;DHT22;15732;48.534;20.382;2023-07-02T12:13:17;27.90;99.90
28520;DHT22;15732;48.534;20.382;2023-07-02T12:15:44;27.90;99.90
28520;DHT22;15732;48.534;20.382;2023-07-02T12:18:11;27.90;99.90
28520;DHT22;15732;48.534;20.382;2023-07-02T12:20:40;27.90;99.90
28520;DHT22;15732;48.534;20.382;2023-07-02T12:23:07;27.90;99.90
28520;DHT22;15732;48.534;20.382;2023-07-02T12:25:39;27.90;99.90
28520;DHT22;15732;48.534;20.382;2023-07-02T12:28:07;27.90;99.90
28520;DHT22;15732;48.534;20.382;2023-07-02T12:30:34;27.90;99.90
28520;DHT22;15732;48.534;20.382;2023-07-02T12:33:02;27.90;99.90
28520;DHT22;15732;48.534;20.382;2023-07-02T12:35:33;27.80;99.90
28520;DHT22;15732;48.534;20.382;2023-07-02T12:38:00;27.80;99.90
28520;DHT22;15732;48.534;20.382;2023-07-02T12:40:33;27.90;99.90
28520;DHT22;15732;48.534;20.382;2023-07-02T12:43:00;27.90;99.90
28520;DHT22;15732;48.534;20.382;2023-07-02T12:45:27;28.00;99.90
28520;DHT22;15732;48.534;20.382;2023-07-02T12:47:54;28.00;99.90
28520;DHT22;15732;48.534;20.382;2023-07-02T12:50:21;28.00;99.90
28520;DHT22;15732;48.534;20.382;2023-07-02T12:52:53;28.00;99.90
28520;DHT22;15732;48.534;20.382;2023-07-02T12:55:24;28.00;99.90
28520;DHT22;15732;48.534;20.382;2023-07-02T12:57:52;28.00;99.90
28520;DHT22;15732;48.534;20.382;2023-07-02T13:00:18;28.00;99.90
28520;DHT22;15732;48.534;20.382;2023-07-02T13:02:50;28.00;99.90
28520;DHT22;15732;48.534;20.382;2023-07-02T13:05:17;28.00;99.90
28520;DHT22;15732;48.534;20.382;2023-07-02T13:07:45;28.00;99.90
28520;DHT22;15732;48.534;20.382;2023-07-02T13:10:12;28.00;99.90
28520;DHT22;15732;48.534;20.382;2023-07-02T13:12:40;28.00;99.90
28520;DHT22;15732;48.534;20.382;2023-07-02T13:15:09;27.90;99.90
28520;DHT22;15732;48.534;20.382;2023-07-02T13:17:39;28.00;99.90
28520;DHT22;15732;48.534;20.382;2023-07-02T13:20:09;28.00;99.90
28520;DHT22;15732;48.534;20.382;2023-07-02T13:22:36;28.00;99.90
28520;DHT22;15732;48.534;20.382;2023-07-02T13:25:05;28.00;99.90
28520;DHT22;15732;48.534;20.382;2023-07-02T13:27:33;28.00;99.90
28520;DHT22;15732;48.534;20.382;2023-07-02T13:30:00;28.00;99.90
28520;DHT22;15732;48.534;20.382;2023-07-02T13:32:31;28.00;99.90
28520;DHT22;15732;48.534;20.382;2023-07-02T13:35:03;28.00;99.90
28520;DHT22;15732;48.534;20.382;2023-07-02T13:37:31;28.00;99.90
28520;DHT22;15732;48.534;20.382;2023-07-02T13:40:02;28.00;99.90
28520;DHT22;15732;48.534;20.382;2023-07-02T13:42:33;28.00;99.90
28520;DHT22;15732;48.534;20.382;2023-07-02T13:45:01;28.00;99.90
28520;DHT22;15732;48.534;20.382;2023-07-02T13:47:29;28.00;99.90
28520;DHT22;15732;48.534;20.382;2023-07-02T13:50:00;27.90;99.90
28520;DHT22;15732;48.534;20.382;2023-07-02T13:52:32;27.90;99.90
28520;DHT22;15732;48.534;20.382;2023-07-02T13:54:59;27.90;99.90
28520;DHT22;15732;48.534;20.382;2023-07-02T13:57:30;27.90;99.90
28520;DHT22;15732;48.534;20.382;2023-07-02T14:00:01;28.00;99.90
28520;DHT22;15732;48.534;20.382;2023-07-02T14:02:28;27.90;99.90
28520;DHT22;15732;48.534;20.382;2023-07-02T14:04:58;27.90;99.90
28520;DHT22;15732;48.534;20.382;2023-07-02T14:07:26;27.90;99.90
28520;DHT22;15732;48.534;20.382;2023-07-02T14:09:53;27.90;99.90
28520;DHT22;15732;48.534;20.382;2023-07-02T14:12:22;27.90;99.90
28520;DHT22;15732;48.534;20.382;2023-07-02T14:14:53;27.90;99.90
28520;DHT22;15732;48.534;20.382;2023-07-02T14:17:20;27.90;99.90
28520;DHT22;15732;48.534;20.382;2023-07-02T14:19:48;27.90;99.90
28520;DHT22;15732;48.534;20.382;2023-07-02T14:22:15;27.90;99.90
28520;DHT22;15732;48.534;20.382;2023-07-02T14:24:43;27.90;99.90
28520;DHT22;15732;48.534;20.382;2023-07-02T14:27:10;27.90;99.90
28520;DHT22;15732;48.534;20.382;2023-07-02T14:29:37;28.00;99.90
28520;DHT22;15732;48.534;20.382;2023-07-02T14:32:05;27.90;99.90
28520;DHT22;15732;48.534;20.382;2023-07-02T14:34:34;27.90;99.90
28520;DHT22;15732;48.534;20.382;2023-07-02T14:37:06;27.90;99.90
28520;DHT22;15732;48.534;20.382;2023-07-02T14:39:37;27.80;99.90
28520;DHT22;15732;48.534;20.382;2023-07-02T14:42:05;27.80;99.90
28520;DHT22;15732;48.534;20.382;2023-07-02T14:44:33;27.70;99.90
28520;DHT22;15732;48.534;20.382;2023-07-02T14:47:00;27.60;99.90
28520;DHT22;15732;48.534;20.382;2023-07-02T14:49:28;27.50;99.90
28520;DHT22;15732;48.534;20.382;2023-07-02T14:51:55;27.20;99.90
28520;DHT22;15732;48.534;20.382;2023-07-02T14:54:26;27.00;99.90
28520;DHT22;15732;48.534;20.382;2023-07-02T14:56:54;26.80;99.90
28520;DHT22;15732;48.534;20.382;2023-07-02T14:59:21;26.60;99.90
28520;DHT22;15732;48.534;20.382;2023-07-02T15:01:49;26.50;99.90
28520;DHT22;15732;48.534;20.382;2023-07-02T15:04:16;26.40;99.90
28520;DHT22;15732;48.534;20.382;2023-07-02T15:06:44;26.20;99.90
28520;DHT22;15732;48.534;20.382;2023-07-02T15:09:15;26.10;99.90
28520;DHT22;15732;48.534;20.382;2023-07-02T15:11:47;26.10;99.90
28520;DHT22;15732;48.534;20.382;2023-07-02T15:14:15;26.10;99.90
28520;DHT22;15732;48.534;20.382;2023-07-02T15:16:46;26.00;99.90
28520;DHT22;15732;48.534;20.382;2023-07-02T15:19:20;26.00;99.90
28520;DHT22;15732;48.534;20.382;2023-07-02T15:21:47;26.10;99.90
28520;DHT22;15732;48.534;20.382;2023-07-02T15:24:14;26.00;99.90
28520;DHT22;15732;48.534;20.382;2023-07-02T15:26:45;25.90;99.90
28520;DHT22;15732;48.534;20.382;2023-07-02T15:29:14;25.80;99.90
28520;DHT22;15732;48.534;20.382;2023-07-02T15:31:45;25.80;99.90
28520;DHT22;15732;48.534;20.382;2023-07-02T15:34:13;25.90;99.90